Canyonlands Natl Park, Utah
Current Conditions -  °F | °C
As of 11:53 AM on Sunday 23 Nov 2014 (Local Time) from KCNY Reporting Station
Clear Clear  
Wind Chill: 38°   Ceiling: Unl
Heat Index: 45°   Visibility: 10mi
Dew Point: 15°   Wind: 17mph
Humidity: 30%   Direction: 280°W
Pressure: 30.04"   Gusts: NA
Location:  38.17°N, 110°W
Report Text: KCNY 231853Z AUTO 28015KT 10SM CLR 07/M09 A3004 RMK AO2 SLP169 T00721094
Loading
Personal Weather Stations






























Interactive Weather Map New forecast layout! Learn more

10-Day Weather Forecast

Advertisements
Track Severe Weather on mobile